aviador You're here:

LZZI Decoded Metar

ZILINA in SLOVAKIA
Report Time2017-12-11 22:30:00
UTC Time2017-12-11 22:57:08
Flight Rules vfr VFR
Wind170° at 13 kt
W.Decomp.*RWY 24: 3.8 kt HW 12.4 kt LCW
W.Rank170° ranks 34
Current wind is above 170° avg. (4.6)
Visibility9999 m
Phenomena:N/A
Clouds:Few 047 Hf
Expected CloudBase > 2,800 ft AGL from Temp-Dew spread
CeilingNone
Temp12°C (ISA -1)
Dew Point05°C (63% RH)
AAT6.2°C
QNH0996 hPa
Density Alt1,608 ft
Elevation1,020 ft
Report Wrong Elevation
Raw Report
LZZI 112230Z 17013KT 130V210 9999 FEW047 12/05 Q0996=

Extra information for LZZI:More info

Metar Taf Metar & Taf Last 4 Metars F.Rules Stats Wind Profile Meteogram Temp Stats Airport Information Weather charts Add Link Nearby VenuesMetar ALERT Operation Metar Decoded Social comments